Time;durP1;ratioP1;P1;durP2;ratioP2;P2;SDS_P1;SDS_P2;PMS_P1;PMS_P2;Temp;Humidity;BMP_temperature;BMP_pressure;BME280_temperature;BME280_humidity;BME280_pressure;Samples;Min_cycle;Max_cycle;Signal;HPM_P1;HPM_P2
2023/04/09 00:00:33;;;;;;;11.40;8.40;;;;;;;7.63;75.85;100640.55;220025;1256;140701;-68
2023/04/09 00:05:58;;;;;;;10.60;7.80;;;;;;;7.65;75.81;100639.55;219777;1257;139609;-69
2023/04/09 00:11:04;;;;;;;8.00;6.60;;;;;;;7.68;76.00;100636.52;219521;1257;141135;-68
2023/04/09 00:16:07;;;;;;;10.10;7.70;;;;;;;7.70;76.25;100637.51;218225;1259;139565;-68
2023/04/09 00:21:12;;;;;;;11.30;7.40;;;;;;;7.73;76.59;100635.20;219154;1256;140186;-67
2023/04/09 00:26:16;;;;;;;14.60;9.40;;;;;;;7.74;76.67;100632.20;219929;1257;140879;-69
2023/04/09 00:31:20;;;;;;;15.20;9.20;;;;;;;7.76;76.80;100637.44;219321;1257;140829;-69
2023/04/09 00:36:25;;;;;;;25.10;14.50;;;;;;;7.74;76.80;100638.32;218124;1256;139955;-69
2023/04/09 00:41:30;;;;;;;28.30;17.10;;;;;;;7.74;77.01;100636.15;217929;1256;140108;-67
2023/04/09 00:46:34;;;;;;;23.40;13.00;;;;;;;7.74;77.46;100631.17;217789;1257;140218;-67
2023/04/09 00:51:39;;;;;;;31.00;14.70;;;;;;;7.72;77.47;100631.33;218399;1257;140380;-68
2023/04/09 00:56:46;;;;;;;17.80;13.20;;;;;;;7.70;77.36;100624.00;217859;1258;140495;-66
2023/04/09 01:01:52;;;;;;;16.30;11.00;;;;;;;7.63;77.55;100618.38;218053;1255;140116;-67
2023/04/09 01:07:35;;;;;;;16.50;13.00;;;;;;;7.59;77.72;100617.70;217712;1257;140424;-65
2023/04/09 01:13:03;;;;;;;14.80;11.50;;;;;;;7.55;77.81;100611.30;218244;1257;140117;-65
2023/04/09 01:18:26;;;;;;;14.80;10.10;;;;;;;7.54;78.15;100605.21;217853;1259;140248;-66
2023/04/09 01:23:55;;;;;;;13.50;10.00;;;;;;;7.49;78.14;100601.13;218642;1257;140613;-66
2023/04/09 01:29:02;;;;;;;16.20;12.40;;;;;;;7.44;78.45;100597.83;218522;1256;140727;-66
2023/04/09 01:34:09;;;;;;;16.90;12.10;;;;;;;7.46;78.87;100597.63;218958;1256;140839;-67
2023/04/09 01:39:15;;;;;;;18.50;10.30;;;;;;;7.48;78.55;100599.41;219312;1256;140308;-67
2023/04/09 01:44:22;;;;;;;22.40;13.00;;;;;;;7.48;78.86;100603.33;219179;1257;140680;-68
2023/04/09 01:49:28;;;;;;;22.00;16.90;;;;;;;7.47;78.84;100595.31;219957;1256;140917;-67
2023/04/09 01:54:32;;;;;;;29.70;20.70;;;;;;;7.50;78.82;100595.09;220459;1256;140148;-67
2023/04/09 01:59:36;;;;;;;41.70;27.00;;;;;;;7.52;79.01;100586.95;220454;1256;141571;-67
2023/04/09 02:04:47;;;;;;;43.70;25.20;;;;;;;7.52;79.16;100586.86;219347;1257;140612;-66
2023/04/09 02:09:53;;;;;;;44.40;20.30;;;;;;;7.54;78.74;100585.08;218667;1259;139426;-67
2023/04/09 02:15:00;;;;;;;25.60;15.90;;;;;;;7.52;78.98;100578.13;218219;1257;140139;-67
2023/04/09 02:20:10;;;;;;;22.50;14.80;;;;;;;7.49;79.45;100578.97;219023;1255;222108;-66
2023/04/09 02:25:16;;;;;;;22.70;13.40;;;;;;;7.46;79.67;100572.98;218147;1256;140217;-66
2023/04/09 02:30:21;;;;;;;19.50;13.50;;;;;;;7.46;79.40;100574.25;218343;1256;140224;-67
2023/04/09 02:35:25;;;;;;;23.20;14.30;;;;;;;7.44;79.46;100574.31;218454;1256;140034;-66
2023/04/09 02:40:31;;;;;;;29.20;17.90;;;;;;;7.41;79.58;100571.11;217918;1255;139888;-66
2023/04/09 02:45:35;;;;;;;19.40;14.70;;;;;;;7.39;79.55;100560.20;218010;1259;140733;-66
2023/04/09 02:50:40;;;;;;;21.00;15.90;;;;;;;7.36;79.81;100551.80;217784;1259;139947;-66
2023/04/09 02:55:44;;;;;;;25.50;14.10;;;;;;;7.34;80.12;100550.29;218529;1256;140839;-66
2023/04/09 03:00:50;;;;;;;25.90;14.30;;;;;;;7.28;80.23;100550.38;218095;1256;139866;-66
2023/04/09 03:05:56;;;;;;;26.90;15.00;;;;;;;7.28;80.27;100555.33;218700;1256;140609;-68
2023/04/09 03:11:01;;;;;;;19.70;13.10;;;;;;;7.24;80.03;100557.73;217963;1257;141060;-68
2023/04/09 03:16:09;;;;;;;20.20;14.40;;;;;;;7.24;80.48;100559.20;218784;1256;140953;-68
2023/04/09 03:21:13;;;;;;;;;;;;;;;7.24;80.49;100557.45;218342;1257;140035;-68
2023/04/09 03:26:17;;;;;;;30.60;18.80;;;;;;;7.21;80.87;100558.73;218433;1257;126188;-68
2023/04/09 03:31:23;;;;;;;23.40;15.20;;;;;;;7.18;80.86;100562.78;218472;1257;140737;-68
2023/04/09 03:36:30;;;;;;;20.70;14.40;;;;;;;7.12;80.81;100563.64;219255;1256;140037;-68
2023/04/09 03:41:34;;;;;;;25.20;15.40;;;;;;;7.10;81.14;100565.83;219616;1256;139908;-67
2023/04/09 03:46:40;;;;;;;24.60;15.50;;;;;;;7.13;81.36;100560.94;220667;1256;141056;-68
2023/04/09 03:51:45;;;;;;;30.40;18.20;;;;;;;7.17;81.14;100554.08;220574;1256;140379;-69
2023/04/09 03:56:50;;;;;;;27.30;16.70;;;;;;;7.21;81.19;100559.39;219827;1256;140569;-68
2023/04/09 04:01:56;;;;;;;29.70;18.70;;;;;;;7.23;81.37;100562.27;218595;1256;140919;-68
2023/04/09 04:07:02;;;;;;;27.70;16.80;;;;;;;7.22;81.10;100569.48;218778;1256;140387;-68
2023/04/09 04:12:08;;;;;;;37.10;21.50;;;;;;;7.17;81.39;100568.58;219298;1256;140271;-68
2023/04/09 04:17:12;;;;;;;34.10;20.60;;;;;;;7.19;81.62;100570.30;218679;1256;140316;-66
2023/04/09 04:22:17;;;;;;;30.30;18.90;;;;;;;7.19;81.43;100571.61;217879;1257;140311;-68
2023/04/09 04:27:22;;;;;;;32.00;21.80;;;;;;;7.20;81.49;100568.42;218883;1256;140533;-68
2023/04/09 04:32:28;;;;;;;36.60;20.30;;;;;;;7.19;81.58;100568.14;218235;1257;139859;-65
2023/04/09 04:37:33;;;;;;;34.70;20.70;;;;;;;7.19;81.83;100571.15;217674;1256;139975;-67
2023/04/09 04:42:36;;;;;;;30.20;18.80;;;;;;;7.16;81.52;100566.36;218180;1256;140223;-67
2023/04/09 04:47:40;;;;;;;34.20;19.40;;;;;;;7.15;81.72;100570.59;218946;1255;140482;-66
2023/04/09 04:52:46;;;;;;;37.30;21.50;;;;;;;7.16;81.77;100570.77;217744;1256;140999;-67
2023/04/09 04:57:51;;;;;;;43.00;23.70;;;;;;;7.17;82.46;100569.79;218167;1257;140670;-66
2023/04/09 05:02:55;;;;;;;63.60;32.00;;;;;;;7.21;82.21;100570.23;218688;1257;140688;-68
2023/04/09 05:08:00;;;;;;;59.70;30.20;;;;;;;7.20;82.20;100572.88;218304;1256;141235;-68
2023/04/09 05:13:04;;;;;;;36.90;24.60;;;;;;;7.21;82.27;100571.88;219477;1259;143869;-68
2023/04/09 05:18:09;;;;;;;34.90;20.10;;;;;;;7.25;82.37;100576.76;219477;1256;140053;-69
2023/04/09 05:23:13;;;;;;;37.80;22.50;;;;;;;7.29;82.35;100572.67;218046;1256;139850;-68
2023/04/09 05:28:17;;;;;;;34.10;22.30;;;;;;;7.36;82.47;100574.98;218427;1259;140329;-69
2023/04/09 05:33:23;;;;;;;30.40;20.60;;;;;;;7.43;82.60;100571.61;220557;1255;141242;-70
2023/04/09 05:38:28;;;;;;;34.20;20.50;;;;;;;7.49;82.30;100576.02;218774;1256;140443;-69
2023/04/09 05:43:32;;;;;;;34.30;22.80;;;;;;;7.55;82.45;100569.91;220492;1255;142263;-70
2023/04/09 05:48:37;;;;;;;34.50;20.90;;;;;;;7.61;82.46;100576.07;220484;1256;139925;-69
2023/04/09 05:53:43;;;;;;;36.60;24.00;;;;;;;7.67;82.08;100573.96;220568;1256;141248;-69
2023/04/09 05:58:50;;;;;;;39.10;22.60;;;;;;;7.73;81.84;100569.55;220573;1256;140181;-71
2023/04/09 06:03:55;;;;;;;34.50;21.30;;;;;;;7.78;82.28;100572.37;218564;1256;141343;-70
2023/04/09 06:09:03;;;;;;;37.20;26.10;;;;;;;7.81;82.08;100577.57;218899;1256;142068;-70
2023/04/09 06:14:11;;;;;;;37.60;24.40;;;;;;;7.84;82.33;100577.88;218841;1256;142398;-69
2023/04/09 06:19:16;;;;;;;38.60;24.30;;;;;;;7.87;81.87;100580.91;217848;1256;139862;-69
2023/04/09 06:24:21;;;;;;;41.70;25.50;;;;;;;7.92;82.41;100586.70;217961;1257;140601;-69
2023/04/09 06:29:28;;;;;;;42.20;25.00;;;;;;;7.99;82.44;100595.55;218100;1256;140287;-69
2023/04/09 06:34:34;;;;;;;42.50;24.70;;;;;;;8.02;82.17;100606.66;219179;1255;140936;-69
2023/04/09 06:39:40;;;;;;;38.80;23.20;;;;;;;8.05;82.44;100604.36;217917;1255;141256;-73
2023/04/09 06:45:07;;;;;;;46.10;28.60;;;;;;;8.11;82.36;100597.69;218549;1256;140118;-68
2023/04/09 06:50:12;;;;;;;35.50;23.90;;;;;;;8.18;81.94;100603.53;217746;1255;141584;-68
2023/04/09 06:55:17;;;;;;;41.30;24.60;;;;;;;8.20;81.67;100608.15;217740;1256;140544;-69
2023/04/09 07:00:22;;;;;;;44.50;26.20;;;;;;;8.21;81.68;100613.63;218513;1257;141588;-68
2023/04/09 07:05:28;;;;;;;39.40;24.70;;;;;;;8.27;81.68;100620.92;218086;1259;139942;-70
2023/04/09 07:10:33;;;;;;;45.50;26.90;;;;;;;8.30;81.81;100622.56;217775;1257;139949;-70
2023/04/09 07:15:38;;;;;;;37.20;25.60;;;;;;;8.39;81.86;100619.73;217824;1259;140261;-69
2023/04/09 07:20:44;;;;;;;41.30;26.10;;;;;;;8.50;81.79;100624.57;217841;1255;140190;-69
2023/04/09 07:25:48;;;;;;;43.90;27.90;;;;;;;8.57;81.58;100624.33;217734;1255;141048;-69
2023/04/09 07:30:53;;;;;;;43.70;27.60;;;;;;;8.69;81.63;100626.91;218699;1256;140706;-69
2023/04/09 07:35:58;;;;;;;41.80;26.00;;;;;;;9.20;82.00;100619.40;219672;1256;140754;-69
2023/04/09 07:41:04;;;;;;;35.80;23.60;;;;;;;10.28;81.86;100614.02;218003;1255;140410;-69
2023/04/09 07:46:09;;;;;;;28.50;20.40;;;;;;;11.03;80.69;100617.20;220548;1256;141106;-68
2023/04/09 07:51:15;;;;;;;33.30;23.40;;;;;;;11.40;79.38;100613.09;219997;1255;140378;-68
2023/04/09 07:56:20;;;;;;;32.80;25.30;;;;;;;11.65;78.61;100620.66;218217;1256;140262;-67
2023/04/09 08:01:25;;;;;;;41.20;27.20;;;;;;;11.80;77.58;100622.04;218704;1257;140243;-68
2023/04/09 08:06:29;;;;;;;37.60;25.00;;;;;;;11.86;77.30;100625.84;219533;1255;141289;-67
2023/04/09 08:11:35;;;;;;;37.60;26.40;;;;;;;11.72;77.05;100630.88;218325;1256;140640;-68
2023/04/09 08:16:40;;;;;;;36.50;25.00;;;;;;;11.71;76.92;100634.04;218080;1257;141312;-71
2023/04/09 08:21:47;;;;;;;36.90;26.70;;;;;;;11.78;76.28;100627.35;218135;1256;140890;-68
2023/04/09 08:26:53;;;;;;;31.70;23.30;;;;;;;12.02;76.52;100626.94;217564;1256;141309;-67
2023/04/09 08:31:57;;;;;;;31.30;22.20;;;;;;;12.55;76.46;100628.31;218285;1256;142058;-67
2023/04/09 08:37:01;;;;;;;35.50;26.00;;;;;;;12.90;75.11;100630.05;219007;1256;140982;-68
2023/04/09 08:42:07;;;;;;;39.30;24.20;;;;;;;13.25;74.71;100631.44;217814;1259;141473;-67
2023/04/09 08:47:12;;;;;;;;;;;;;;;13.78;73.92;100626.74;217966;1257;141580;-68
2023/04/09 08:52:20;;;;;;;35.20;24.40;;;;;;;14.18;73.07;100623.80;217631;1259;524043;-67
2023/04/09 08:57:25;;;;;;;28.40;23.10;;;;;;;14.81;73.11;100620.92;217599;1259;140757;-70
2023/04/09 09:02:30;;;;;;;30.60;24.20;;;;;;;15.47;72.83;100619.79;218025;1256;141165;-70
2023/04/09 09:07:35;;;;;;;31.70;24.90;;;;;;;15.95;71.90;100616.41;217994;1257;141305;-71
2023/04/09 09:12:40;;;;;;;29.50;26.10;;;;;;;16.04;70.65;100620.45;218257;1256;139982;-72
2023/04/09 09:18:06;;;;;;;30.60;24.70;;;;;;;16.20;70.32;100621.14;218342;1257;139921;-69
2023/04/09 09:23:11;;;;;;;28.60;23.60;;;;;;;16.26;69.09;100621.55;218570;1257;140274;-70
2023/04/09 09:28:16;;;;;;;24.80;22.00;;;;;;;16.38;69.15;100626.00;219768;1260;139793;-70
2023/04/09 09:33:20;;;;;;;23.90;20.80;;;;;;;16.52;67.74;100625.39;220218;1256;141153;-68
2023/04/09 09:38:25;;;;;;;30.00;23.30;;;;;;;16.53;67.37;100628.16;220169;1256;141161;-71
2023/04/09 09:43:40;;;;;;;25.70;22.40;;;;;;;16.61;66.85;100626.80;218803;1256;141302;-69
2023/04/09 09:48:48;;;;;;;30.90;24.10;;;;;;;16.52;65.82;100626.42;220239;1257;140044;-70
2023/04/09 09:53:55;;;;;;;27.00;22.20;;;;;;;16.29;65.56;100625.83;218139;1256;139875;-69
2023/04/09 09:59:25;;;;;;;23.60;20.30;;;;;;;16.15;65.09;100619.69;217216;1256;139303;-69
2023/04/09 10:04:36;;;;;;;26.90;20.60;;;;;;;15.96;65.28;100622.08;217817;1260;140619;-68
2023/04/09 10:09:47;;;;;;;23.30;20.00;;;;;;;15.84;65.05;100618.76;217583;1258;140801;-76
2023/04/09 10:14:54;;;;;;;23.40;19.70;;;;;;;15.75;65.10;100612.27;218957;1259;140373;-70
2023/04/09 10:20:12;;;;;;;28.10;22.00;;;;;;;15.77;65.08;100612.89;217489;1256;140133;-70
2023/04/09 10:25:17;;;;;;;27.80;20.70;;;;;;;15.74;64.63;100611.40;217460;1256;139416;-71
2023/04/09 10:30:36;;;;;;;32.80;23.50;;;;;;;15.71;64.93;100611.61;217278;1261;139897;-71
2023/04/09 10:35:41;;;;;;;28.90;24.00;;;;;;;15.75;65.09;100607.21;217964;1256;140305;-67
2023/04/09 10:40:50;;;;;;;31.40;24.00;;;;;;;15.57;64.77;100605.55;217299;1261;139405;-68
2023/04/09 10:45:57;;;;;;;30.20;23.40;;;;;;;15.24;64.78;100605.75;217639;1256;139889;-66
2023/04/09 10:51:05;;;;;;;33.50;23.10;;;;;;;15.11;65.09;100603.95;217517;1262;140323;-69
2023/04/09 10:56:16;;;;;;;32.00;25.30;;;;;;;14.95;65.25;100604.42;218073;1257;141941;-69
2023/04/09 11:01:23;;;;;;;33.80;24.90;;;;;;;14.81;65.34;100606.37;217807;1261;140778;-70
2023/04/09 11:06:30;;;;;;;28.10;20.30;;;;;;;14.69;65.60;100608.69;218397;1261;141381;-68
2023/04/09 11:11:36;;;;;;;33.20;23.30;;;;;;;14.55;65.73;100610.08;218624;1259;140652;-69
2023/04/09 11:16:40;;;;;;;28.30;23.80;;;;;;;14.38;65.71;100610.48;217219;1262;140391;-69
2023/04/09 11:21:47;;;;;;;25.40;19.50;;;;;;;14.18;65.66;100608.04;217375;1256;140282;-69
2023/04/09 11:26:54;;;;;;;27.20;23.00;;;;;;;13.94;65.96;100609.02;220085;1259;141969;-69
2023/04/09 11:32:01;;;;;;;;;;;;;;;13.76;66.29;100610.84;220307;1257;140219;-68
2023/04/09 11:37:13;;;;;;;28.40;21.60;;;;;;;13.61;66.23;100611.73;220159;1256;125894;-69
2023/04/09 11:42:17;;;;;;;25.00;20.40;;;;;;;13.41;66.64;100611.27;219727;1256;139531;-68
2023/04/09 11:47:23;;;;;;;30.10;23.60;;;;;;;13.21;66.81;100612.59;219145;1258;139661;-70
2023/04/09 11:52:30;;;;;;;;;;;;;;;13.08;67.32;100616.29;217391;1262;140489;-72
2023/04/09 11:57:44;;;;;;;36.20;24.10;;;;;;;12.92;67.48;100620.55;218873;1256;127715;-68
2023/04/09 12:02:58;;;;;;;31.40;23.10;;;;;;;12.87;68.03;100620.33;217392;1259;141130;-69
2023/04/09 12:08:07;;;;;;;33.20;23.20;;;;;;;12.88;68.37;100618.21;218596;1260;139711;-74
2023/04/09 12:13:12;;;;;;;31.10;24.10;;;;;;;12.91;68.39;100616.19;217292;1259;140000;-69
2023/04/09 12:18:17;;;;;;;36.80;24.10;;;;;;;12.88;68.60;100620.29;217379;1261;141980;-68
2023/04/09 12:23:21;;;;;;;34.60;23.10;;;;;;;12.79;68.96;100621.86;217644;1258;140894;-72
2023/04/09 12:28:26;;;;;;;33.70;25.40;;;;;;;12.70;68.91;100623.30;217345;1256;140563;-68
2023/04/09 12:33:31;;;;;;;32.30;22.70;;;;;;;12.57;69.16;100623.39;217454;1259;141290;-71
2023/04/09 12:38:38;;;;;;;28.80;22.20;;;;;;;12.47;69.51;100628.11;217216;1262;140430;-69
2023/04/09 12:43:44;;;;;;;35.20;23.20;;;;;;;12.43;69.64;100626.21;217574;1259;141078;-69
2023/04/09 12:48:50;;;;;;;29.70;22.40;;;;;;;12.41;69.88;100625.58;217613;1257;140408;-68
2023/04/09 12:53:55;;;;;;;30.30;22.00;;;;;;;12.40;69.90;100621.64;217334;1261;140263;-71
2023/04/09 12:59:00;;;;;;;32.00;22.60;;;;;;;12.42;69.91;100617.63;217135;1262;140086;-68
2023/04/09 13:04:06;;;;;;;33.30;24.20;;;;;;;12.45;70.39;100617.67;217733;1256;140473;-70
2023/04/09 13:09:11;;;;;;;37.30;25.60;;;;;;;12.47;70.58;100621.68;217302;1259;141808;-67
2023/04/09 13:14:15;;;;;;;34.80;23.30;;;;;;;12.44;70.61;100616.66;217305;1262;140207;-69
2023/04/09 13:19:22;;;;;;;28.90;21.70;;;;;;;12.38;70.89;100616.56;217507;1260;141259;-69
2023/04/09 13:24:26;;;;;;;35.70;26.60;;;;;;;12.33;71.06;100618.27;219242;1258;140680;-69
2023/04/09 13:29:32;;;;;;;34.40;24.50;;;;;;;12.27;71.39;100618.91;218290;1259;140975;-68
2023/04/09 13:34:38;;;;;;;35.00;25.90;;;;;;;12.19;71.50;100617.52;218784;1256;142015;-68
2023/04/09 13:39:43;;;;;;;37.00;24.50;;;;;;;12.10;71.54;100615.22;218087;1257;141357;-67
2023/04/09 13:44:49;;;;;;;33.60;25.10;;;;;;;11.96;71.59;100613.84;217545;1261;140066;-69
2023/04/09 13:49:54;;;;;;;38.10;24.50;;;;;;;11.86;71.93;100610.77;217485;1262;140549;-70
2023/04/09 13:55:02;;;;;;;34.10;24.90;;;;;;;11.75;72.25;100613.15;218666;1262;140878;-67
2023/04/09 14:00:08;;;;;;;36.40;24.80;;;;;;;11.67;72.47;100606.02;217364;1257;140192;-66
2023/04/09 14:05:14;;;;;;;26.10;19.60;;;;;;;11.65;72.61;100607.76;217226;1256;140001;-66
2023/04/09 14:10:22;;;;;;;31.00;23.00;;;;;;;11.57;72.90;100605.27;217479;1257;140278;-65
2023/04/09 14:15:26;;;;;;;27.50;23.40;;;;;;;11.56;73.03;100609.52;217675;1259;140195;-71
2023/04/09 14:20:34;;;;;;;33.20;24.60;;;;;;;11.56;73.37;100603.31;217501;1262;140990;-67
2023/04/09 14:25:39;;;;;;;28.80;22.70;;;;;;;11.59;73.56;100606.73;217369;1262;140035;-68
2023/04/09 14:30:45;;;;;;;34.50;24.10;;;;;;;11.59;73.59;100605.38;217666;1262;140376;-73
2023/04/09 14:35:56;;;;;;;29.20;22.70;;;;;;;11.59;73.81;100601.11;217419;1261;140317;-66
2023/04/09 14:41:07;;;;;;;34.30;25.20;;;;;;;11.54;74.15;100599.78;217412;1257;141042;-69
2023/04/09 14:46:19;;;;;;;32.30;25.40;;;;;;;11.48;75.15;100592.27;217272;1257;140174;-67
2023/04/09 14:51:29;;;;;;;35.40;25.40;;;;;;;11.45;75.05;100592.55;217270;1262;139928;-66
2023/04/09 14:56:37;;;;;;;37.70;24.50;;;;;;;11.43;75.64;100594.50;218590;1260;141410;-67
2023/04/09 15:01:42;;;;;;;35.60;22.60;;;;;;;11.41;75.85;100594.60;217683;1262;140493;-66
2023/04/09 15:06:47;;;;;;;28.30;21.30;;;;;;;11.35;76.07;100590.34;217521;1262;141398;-67
2023/04/09 15:11:53;;;;;;;27.20;21.60;;;;;;;11.21;76.09;100588.78;218920;1257;140662;-66
2023/04/09 15:16:58;;;;;;;39.80;28.10;;;;;;;11.09;76.15;100588.95;219061;1262;141066;-68
2023/04/09 15:22:02;;;;;;;30.70;20.00;;;;;;;11.02;76.73;100585.50;218400;1262;140722;-70
2023/04/09 15:27:07;;;;;;;38.10;26.50;;;;;;;11.03;77.13;100592.48;217182;1262;140538;-67
2023/04/09 15:32:11;;;;;;;37.40;27.10;;;;;;;11.09;77.38;100592.94;218497;1262;140110;-67
2023/04/09 15:37:15;;;;;;;36.70;26.40;;;;;;;11.15;77.74;100590.84;220362;1259;140647;-67
2023/04/09 15:42:21;;;;;;;34.40;25.30;;;;;;;11.23;77.69;100588.33;219814;1257;141218;-66
2023/04/09 15:47:26;;;;;;;39.00;24.70;;;;;;;11.26;77.56;100590.68;217679;1261;140161;-67
2023/04/09 15:52:31;;;;;;;37.50;25.00;;;;;;;11.30;77.90;100589.95;218497;1261;141209;-68
2023/04/09 15:57:37;;;;;;;32.60;25.80;;;;;;;11.32;78.06;100594.42;217732;1261;140916;-66
2023/04/09 16:02:43;;;;;;;38.20;26.10;;;;;;;11.31;78.10;100594.45;218887;1257;140501;-65
2023/04/09 16:07:51;;;;;;;34.10;25.60;;;;;;;11.29;78.20;100594.88;217859;1261;141657;-66
2023/04/09 16:12:56;;;;;;;32.40;24.80;;;;;;;11.23;78.32;100597.35;217750;1262;141669;-65
2023/04/09 16:18:01;;;;;;;29.70;23.20;;;;;;;11.18;78.47;100600.50;217599;1262;140194;-65
2023/04/09 16:23:07;;;;;;;;;;;;;;;11.10;78.35;100600.02;217694;1260;143003;-66
2023/04/09 16:28:14;;;;;;;36.00;25.10;;;;;;;10.95;78.64;100603.81;218230;1257;127828;-65
2023/04/09 16:33:19;;;;;;;38.10;26.40;;;;;;;10.87;78.91;100602.04;217324;1258;140803;-65
2023/04/09 16:38:26;;;;;;;37.10;26.80;;;;;;;10.80;78.90;100598.02;217800;1260;141667;-64
2023/04/09 16:43:33;;;;;;;35.20;25.20;;;;;;;10.78;79.24;100601.39;217359;1263;140465;-66
2023/04/09 16:48:40;;;;;;;34.70;25.70;;;;;;;10.75;79.26;100600.34;218656;1258;140947;-66
2023/04/09 16:53:46;;;;;;;36.70;25.60;;;;;;;10.71;79.37;100596.10;218640;1258;140721;-67
2023/04/09 16:58:53;;;;;;;33.10;24.00;;;;;;;10.70;79.67;100601.82;217173;1261;140508;-67
2023/04/09 17:04:01;;;;;;;35.90;24.80;;;;;;;10.69;79.53;100603.52;218180;1260;141421;-66
2023/04/09 17:09:09;;;;;;;38.30;26.60;;;;;;;10.66;79.71;100610.42;217522;1261;140413;-70
2023/04/09 17:14:15;;;;;;;40.90;26.50;;;;;;;10.64;79.72;100623.36;217297;1260;140905;-67
2023/04/09 17:19:22;;;;;;;34.80;24.30;;;;;;;10.61;79.82;100620.55;220150;1257;141291;-67
2023/04/09 17:24:26;;;;;;;37.70;25.40;;;;;;;10.55;79.79;100630.04;217712;1257;141844;-68
2023/04/09 17:29:31;;;;;;;35.90;24.30;;;;;;;10.53;79.97;100635.18;220101;1257;140816;-68
2023/04/09 17:34:35;;;;;;;30.70;24.60;;;;;;;10.49;79.97;100638.39;217414;1257;140963;-66
2023/04/09 17:39:39;;;;;;;29.90;22.60;;;;;;;10.45;80.04;100645.46;219264;1257;140432;-69
2023/04/09 17:44:44;;;;;;;38.50;26.90;;;;;;;10.39;79.94;100653.45;219240;1257;141013;-68
2023/04/09 17:49:48;;;;;;;31.90;24.40;;;;;;;10.33;80.07;100657.13;218698;1260;141329;-67
2023/04/09 17:54:55;;;;;;;39.20;27.00;;;;;;;10.27;79.96;100658.86;219254;1257;140270;-66
2023/04/09 18:00:04;;;;;;;39.00;26.70;;;;;;;10.21;80.27;100665.15;218670;1257;141418;-66
2023/04/09 18:05:09;;;;;;;37.70;26.70;;;;;;;10.12;80.24;100664.77;218479;1257;141696;-67
2023/04/09 18:10:13;;;;;;;39.40;25.70;;;;;;;10.01;80.11;100666.56;217571;1257;140325;-66
2023/04/09 18:15:18;;;;;;;36.20;25.40;;;;;;;9.89;80.09;100668.02;217350;1258;141102;-68
2023/04/09 18:20:25;;;;;;;36.60;24.70;;;;;;;9.79;80.27;100672.14;217257;1257;141034;-68
2023/04/09 18:25:31;;;;;;;34.00;24.50;;;;;;;9.65;80.13;100678.54;217306;1257;140238;-67
2023/04/09 18:30:37;;;;;;;37.30;25.90;;;;;;;9.52;80.01;100681.35;217298;1258;140096;-69
2023/04/09 18:35:41;;;;;;;38.80;26.20;;;;;;;9.39;79.85;100683.00;217170;1257;141547;-67
2023/04/09 18:40:45;;;;;;;36.10;27.20;;;;;;;9.26;80.04;100685.06;217333;1258;141098;-66
2023/04/09 18:45:50;;;;;;;38.40;24.70;;;;;;;9.16;80.11;100688.73;217865;1259;141961;-67
2023/04/09 18:50:55;;;;;;;40.50;25.70;;;;;;;9.06;80.18;100693.71;218170;1257;140329;-69
2023/04/09 18:56:04;;;;;;;37.70;23.70;;;;;;;8.97;79.91;100702.35;217986;1257;142177;-68
2023/04/09 19:01:18;;;;;;;36.50;23.20;;;;;;;8.85;80.00;100702.81;217407;1257;143095;-68
2023/04/09 19:06:28;;;;;;;34.30;24.20;;;;;;;8.74;80.12;100708.06;218498;1257;140538;-71
2023/04/09 19:11:35;;;;;;;36.50;24.90;;;;;;;8.67;80.17;100703.53;219524;1256;141187;-67
2023/04/09 19:16:45;;;;;;;39.80;24.20;;;;;;;8.59;80.29;100704.39;220200;1257;141796;-65
2023/04/09 19:21:55;;;;;;;33.30;24.80;;;;;;;8.50;80.02;100706.38;217318;1257;140347;-65
2023/04/09 19:27:08;;;;;;;37.10;23.90;;;;;;;8.42;80.05;100702.23;218929;1257;140249;-66
2023/04/09 19:32:29;;;;;;;35.50;26.20;;;;;;;8.34;80.29;100705.61;220142;1257;140076;-66
2023/04/09 19:37:35;;;;;;;33.60;23.00;;;;;;;8.26;80.44;100713.27;218509;1257;140278;-66
2023/04/09 19:42:40;;;;;;;34.00;23.60;;;;;;;8.20;80.20;100715.41;218275;1257;140617;-65
2023/04/09 19:47:45;;;;;;;38.90;23.60;;;;;;;8.12;80.45;100718.34;217686;1256;140023;-66
2023/04/09 19:52:53;;;;;;;33.00;23.50;;;;;;;8.04;80.51;100717.79;218228;1256;141183;-66
2023/04/09 19:57:59;;;;;;;;;;;;;;;7.89;80.27;100719.91;217575;1257;140149;-65
2023/04/09 20:03:05;;;;;;;33.30;24.10;;;;;;;7.77;80.35;100720.30;218682;1258;126155;-65
2023/04/09 20:08:11;;;;;;;39.20;24.00;;;;;;;7.70;80.54;100716.85;217814;1260;141493;-66
2023/04/09 20:13:19;;;;;;;42.30;26.20;;;;;;;7.65;80.38;100720.52;217433;1260;141069;-69
2023/04/09 20:18:24;;;;;;;32.90;25.10;;;;;;;7.61;81.20;100715.58;217564;1257;140310;-68
2023/04/09 20:23:31;;;;;;;36.20;24.70;;;;;;;7.57;80.67;100714.38;217486;1257;140385;-68
2023/04/09 20:28:35;;;;;;;36.80;25.50;;;;;;;7.53;81.26;100717.45;217684;1257;140847;-67
2023/04/09 20:33:40;;;;;;;35.20;25.10;;;;;;;7.51;81.03;100721.99;217352;1260;140469;-69
2023/04/09 20:38:44;;;;;;;31.80;22.50;;;;;;;7.42;81.01;100723.83;217281;1260;140123;-68
2023/04/09 20:43:49;;;;;;;31.60;22.60;;;;;;;7.40;81.59;100729.08;217327;1260;140015;-68
2023/04/09 20:48:54;;;;;;;25.90;20.10;;;;;;;7.35;81.35;100724.21;217175;1257;375162;-67
2023/04/09 20:53:59;;;;;;;26.90;21.90;;;;;;;7.27;81.47;100724.18;218234;1257;141479;-67
2023/04/09 20:59:05;;;;;;;29.70;21.70;;;;;;;7.19;81.31;100727.80;218900;1257;140940;-67
2023/04/09 21:04:10;;;;;;;29.80;20.90;;;;;;;7.18;81.84;100728.24;218345;1257;140505;-66
2023/04/09 21:09:15;;;;;;;31.60;22.80;;;;;;;7.19;81.51;100727.73;219261;1256;140512;-66
2023/04/09 21:14:22;;;;;;;32.00;21.80;;;;;;;7.21;82.44;100721.48;217598;1257;141199;-67
2023/04/09 21:19:27;;;;;;;33.60;22.20;;;;;;;7.22;81.97;100720.01;219432;1257;140615;-67
2023/04/09 21:24:32;;;;;;;37.00;24.20;;;;;;;7.18;82.50;100720.05;220309;1256;140697;-66
2023/04/09 21:29:38;;;;;;;33.60;24.50;;;;;;;7.20;82.08;100719.10;219440;1257;141572;-67
2023/04/09 21:34:43;;;;;;;32.00;22.80;;;;;;;7.25;82.59;100714.53;219475;1256;140391;-67
2023/04/09 21:39:51;;;;;;;33.50;24.20;;;;;;;7.25;82.37;100710.73;217934;1257;140853;-67
2023/04/09 21:45:00;;;;;;;43.00;26.20;;;;;;;7.24;82.25;100709.50;218109;1257;141208;-66
2023/04/09 21:50:07;;;;;;;34.30;22.70;;;;;;;7.20;82.40;100712.98;218400;1256;139940;-66
2023/04/09 21:55:11;;;;;;;30.80;22.60;;;;;;;7.20;82.62;100714.20;217735;1257;141355;-67
2023/04/09 22:00:17;;;;;;;35.10;24.10;;;;;;;7.20;82.84;100712.48;217694;1257;141002;-65
2023/04/09 22:05:22;;;;;;;37.80;26.50;;;;;;;7.19;83.30;100713.61;218293;1256;139960;-68
2023/04/09 22:10:27;;;;;;;42.80;26.40;;;;;;;7.15;82.85;100711.65;217676;1256;140943;-66
2023/04/09 22:15:32;;;;;;;35.60;26.20;;;;;;;7.07;82.87;100706.39;218333;1256;140219;-68
2023/04/09 22:20:36;;;;;;;33.10;22.00;;;;;;;7.05;83.10;100703.92;217678;1260;140625;-65
2023/04/09 22:25:40;;;;;;;31.20;22.80;;;;;;;7.05;82.95;100705.39;217331;1260;139844;-68
2023/04/09 22:30:44;;;;;;;29.50;20.30;;;;;;;7.02;82.91;100707.52;217823;1259;139782;-67
2023/04/09 22:35:50;;;;;;;36.20;22.80;;;;;;;6.95;83.15;100714.02;217339;1258;141006;-66
2023/04/09 22:40:57;;;;;;;33.00;21.50;;;;;;;6.92;83.24;100703.80;218377;1257;139991;-64
2023/04/09 22:46:03;;;;;;;29.30;21.80;;;;;;;6.92;83.38;100711.79;217633;1260;140031;-66
2023/04/09 22:51:07;;;;;;;37.40;27.00;;;;;;;6.90;83.78;100712.90;219349;1256;140633;-67